Aérodrome :







RETROUVEZ-NOUS SUR...

 
LOGIN :

S'inscrire | Disclaimer

   EN    FR    IT 

 









Légende :    VFR   VFR Marginal   IFR   IFR Intensif   IFR Très Intensif
Visi : 
Plafond : 
>= 8 km
>= 3000ft
5 à 8 km
1000 à 3000 ft
1500m à 5 km
500 à 1000 ft
800 à 1500m
200 à 500 ft
< 800m
< 200 ft
Symboles :   Orages  Brouillard  Fortes neiges  Fortes précipitations  Vent > 20 kt






- Altitude de l'aérodrome : 285 ft
- Code IATA : ALB


KALB - Albany International

DERNIER METAR :
  • 261651Z 02005KT 4SM -DZ BR BKN006 OVC010 03/00 A3000 RMK AO2 RAE13DZB13 SLP160 P0000 T00280000

METARs EXPIRÉS :
  • 261631Z 36006KT 3SM -DZ BR BKN006 OVC020 03/M01 A3000 RMK AO2 RAE13DZB13 P0000 T00281006
  • 261551Z 36003KT 3SM -RA BR SCT006 BKN010 OVC020 03/M01 A3000 RMK AO2 DZB22E29RAB29 SLP162 P0001 T00281006
  • 261530Z 02005KT 4SM -RA BKN010 OVC020 03/M01 A3000 RMK AO2 DZB22E29RAB29 P0000 T00281006
  • 261451Z 35004KT 8SM SCT010 BKN023 OVC032 03/M01 A3000 RMK AO2 DZE08 SLP162 P0000 60000 T00281011 51008
  • 261441Z 36006KT 8SM SCT010 BKN023 OVC032 03/M01 A3000 RMK AO2 DZE08 P0000 T00281006

TAF KALB
Valide du 26 à 12h jusqu'au 27 à 12h UTC


261141Z 2612/2712 36008KT 5SM BR VCSH BKN025 OVC040
FM261600 05008KT 3SM BR BKN015 OVC025
FM262300 03005KT 4SM BR OVC015
FM270300 08006KT 3SM -RA BR OVC015
FM270700 12007KT 2SM RA BR BKN007 OVC015 WS020/13045KT



MET'MAP, la Météo Aéronautique d'un coup d'oeil ! - Copyright ORBIFLY Décembre 2007 - Disclaimer

ORBIFLY MET'MAP TEAM :

Programmation & Développement : Alexandra Zaïnal
Sur une idée originale de : Baudouin d'Aumeries
Assistance à la programmation : Marc-Olivier Méhu
Soutien technique & logistique : Manuel Goepfert

Contact : metmap@orbifly.com




SOURCES & CREDITS :

   NOAA